LPFR Airport Information

Runway Information
Runway 10 Length 8169 ft width 148 ft
Elevation 24 ft Threshold 148 ft Heading 100
Runway 28 Length 8169 ft Width 148 ft
Elevation 18 ft Threshold 148 ft Heading 280
Airport Frequencies
Type APP Name APP Frequency 119.4 MHZ
Type ATIS Name ATIS Frequency 124.2 MHZ
Type GND Name GND Frequency 118.575 MHZ
Type TWR Name TWR Frequency 118.2 MHZ
Airport Navaids
Type NDB Name Faro Frequency 332 KHZ
Type VOR-DME Name Faro Frequency 112800 KHZ
Airport Weather Information & NOTAM
ADDS - METARS form results

(2152 UTC 09 December 2018)
Data provider http://aviationweather.gov/metar/data/
 
METAR text: LPFR 092130Z VRB02KT CAVOK 14/11 Q1027
Conditions at: LPFR (FARO , PT) observed 2130 UTC 09 December 2018
Temperature: 14.0°C (57°F)
Dewpoint: 11.0°C (52°F) [RH = 82%]
Pressure (altimeter): 30.32 inches Hg (1027.0 mb)
Winds: variable direction winds at 2 MPH (2 knots; 1.0 m/s)
Visibility: 6 or more miles (10+ km)
Ceiling: ceiling and visibility are OK
Clouds: unknown
Weather: no significant weather observed at this time

METAR text: LPFR 092100Z VRB02KT CAVOK 13/10 Q1027
Conditions at: LPFR (FARO , PT) observed 2100 UTC 09 December 2018
Temperature: 13.0°C (55°F)
Dewpoint: 10.0°C (50°F) [RH = 82%]
Pressure (altimeter): 30.32 inches Hg (1027.0 mb)
Winds: variable direction winds at 2 MPH (2 knots; 1.0 m/s)
Visibility: 6 or more miles (10+ km)
Ceiling: ceiling and visibility are OK
Clouds: unknown
Weather: no significant weather observed at this time

Forecast for: LPFR (FARO , PT)
Text: TAF LPFR 091700Z 0918/1018 VRB03KT CAVOK
Forecast period: 1800 to 2000 UTC 09 December 2018
Forecast type: FROM: standard forecast or significant change
Winds: variable direction winds at 3 MPH (3 knots; 1.5 m/s)
Visibility: 6 or more miles 10+ km)
Ceiling: unknown
Clouds: missing
Weather: NSW  (no significant weather)
Text: PROB30 0918/0920 33005KT
Forecast period: 1800 to 2000 UTC 09 December 2018
Forecast type: PROBABLE: 30 percent likelihood of the following during this time
Winds: from the NNW (330 degrees) at 6 MPH (5 knots; 2.6 m/s)
Visibility: missing
Ceiling: unknown
Clouds: missing
Weather: no significant weather forecast for this period
Text: BECMG 0920/0922 06010KT
Forecast period: 2000 UTC 09 December 2018 to 0800 UTC 10 December 2018
Forecast type: BECOMING: Conditions expected to become as follows by 2200 UTC 09 December 2018
Winds: from the ENE (60 degrees) at 12 MPH (10 knots; 5.1 m/s)
Visibility: 6 or more miles 10+ km)
Ceiling: unknown
Clouds: missing
Weather: NSW  (no significant weather)
Text: BECMG 1008/1010 10010KT
Forecast period: 0800 to 1800 UTC 10 December 2018
Forecast type: BECOMING: Conditions expected to become as follows by 1000 UTC 10 December 2018
Winds: from the E (100 degrees) at 12 MPH (10 knots; 5.1 m/s)
Visibility: 6 or more miles 10+ km)
Ceiling: unknown
Clouds: missing
Weather: NSW  (no significant weather)